createdAt,value
2022-09-01T00:01:22.228Z,9.30
2022-09-01T00:06:26.828Z,7.35
2022-09-01T00:11:33.438Z,9.30
2022-09-01T00:16:37.536Z,10.00
2022-09-01T00:21:46.198Z,6.93
2022-09-01T00:26:51.249Z,6.57
2022-09-01T00:31:55.172Z,6.32
2022-09-01T00:36:58.861Z,9.02
2022-09-01T00:42:04.179Z,7.60
2022-09-01T00:47:08.480Z,6.47
2022-09-01T00:52:24.493Z,6.13
2022-09-01T00:57:29.959Z,7.80
2022-09-01T01:02:33.846Z,5.10
2022-09-01T01:07:39.139Z,4.57
2022-09-01T01:12:45.287Z,7.70
2022-09-01T01:17:48.860Z,6.25
2022-09-01T01:23:05.709Z,5.13
2022-09-01T01:28:19.370Z,6.10
2022-09-01T01:33:32.858Z,5.68
2022-09-01T01:38:36.730Z,4.20
2022-09-01T01:43:43.077Z,5.28
2022-09-01T01:48:47.231Z,4.30
2022-09-01T01:53:52.997Z,4.05
2022-09-01T01:58:58.945Z,4.55
2022-09-01T02:04:05.845Z,4.30
2022-09-01T02:09:10.502Z,3.72
2022-09-01T02:14:20.530Z,5.22
2022-09-01T02:19:24.355Z,3.88
2022-09-01T02:24:31.039Z,5.82
2022-09-01T02:29:38.593Z,5.77
2022-09-01T02:34:53.724Z,4.22
2022-09-01T02:39:58.832Z,4.40
2022-09-01T02:45:08.147Z,3.30
2022-09-01T02:50:13.867Z,4.38
2022-09-01T02:55:22.216Z,3.60
2022-09-01T03:00:33.551Z,5.30
2022-09-01T03:05:39.198Z,3.70
2022-09-01T03:10:47.413Z,4.70
2022-09-01T03:15:53.075Z,4.73
2022-09-01T03:20:57.733Z,5.00
2022-09-01T03:26:02.593Z,3.33
2022-09-01T03:31:09.014Z,3.67
2022-09-01T03:36:19.519Z,4.63
2022-09-01T03:41:28.492Z,2.63
2022-09-01T03:46:36.847Z,3.28
2022-09-01T03:51:45.313Z,4.45
2022-09-01T03:56:49.266Z,5.07
2022-09-01T04:01:58.026Z,7.68
2022-09-01T04:07:02.078Z,11.43
2022-09-01T04:12:09.072Z,3.95
2022-09-01T04:17:33.531Z,4.53
2022-09-01T04:22:38.416Z,7.75
2022-09-01T04:27:42.480Z,4.35
2022-09-01T04:32:47.646Z,6.28
2022-09-01T04:37:51.536Z,6.25
2022-09-01T04:42:55.349Z,4.95
2022-09-01T04:48:01.032Z,7.47
2022-09-01T04:53:07.626Z,4.50
2022-09-01T04:58:19.009Z,4.25
2022-09-01T05:03:24.920Z,3.63
2022-09-01T05:08:35.490Z,6.22
2022-09-01T05:13:45.460Z,4.60
2022-09-01T05:18:54.293Z,6.00
2022-09-01T05:24:01.883Z,6.32
2022-09-01T05:29:10.708Z,4.50
2022-09-01T05:34:23.096Z,3.75
2022-09-01T05:39:28.060Z,5.13
2022-09-01T05:44:31.703Z,8.45
2022-09-01T05:49:39.505Z,10.15
2022-09-01T05:54:47.358Z,6.95
2022-09-01T05:59:54.229Z,6.05
2022-09-01T06:05:02.902Z,6.80
2022-09-01T06:10:10.248Z,5.75
2022-09-01T06:15:16.428Z,6.15
2022-09-01T06:20:27.613Z,5.38
2022-09-01T06:25:31.396Z,5.93
2022-09-01T06:30:36.559Z,5.22
2022-09-01T06:35:48.266Z,6.63
2022-09-01T06:41:04.266Z,4.13
2022-09-01T06:46:08.619Z,10.88
2022-09-01T06:51:19.182Z,6.00
2022-09-01T06:56:32.287Z,14.38
2022-09-01T07:01:39.604Z,6.85
2022-09-01T07:12:35.405Z,6.75
2022-09-01T07:17:42.303Z,6.75
2022-09-01T07:28:15.826Z,4.57
2022-09-01T07:44:23.350Z,9.27
2022-09-01T07:50:24.690Z,8.52
2022-09-01T07:55:32.029Z,9.15
2022-09-01T08:00:38.211Z,8.82
2022-09-01T08:05:44.507Z,10.07
2022-09-01T08:10:49.552Z,5.55
2022-09-01T08:16:15.956Z,8.20
2022-09-01T08:21:22.085Z,6.03
2022-09-01T08:26:41.310Z,6.85
2022-09-01T08:31:48.237Z,8.48
2022-09-01T08:36:52.603Z,5.60
2022-09-01T08:42:13.436Z,6.10
2022-09-01T08:47:28.115Z,5.63
2022-09-01T08:52:41.803Z,6.63
2022-09-01T08:57:54.830Z,5.80
2022-09-01T09:03:20.467Z,5.13
2022-09-01T09:08:56.779Z,7.50
2022-09-01T09:14:12.546Z,7.17
2022-09-01T09:19:25.113Z,22.95
2022-09-01T09:24:47.415Z,17.08
2022-09-01T09:29:56.753Z,15.57
2022-09-01T09:35:23.226Z,10.00
2022-09-01T09:40:28.738Z,11.27
2022-09-01T09:45:41.716Z,34.95
2022-09-01T09:50:45.960Z,24.95
2022-09-01T09:56:00.363Z,27.50
2022-09-01T10:01:17.781Z,19.88
2022-09-01T10:06:36.302Z,12.82
2022-09-01T10:11:44.450Z,13.10
2022-09-01T10:16:54.662Z,13.52
2022-09-01T10:21:58.472Z,8.60
2022-09-01T10:27:13.860Z,9.27
2022-09-01T10:32:37.045Z,11.68
2022-09-01T10:37:42.847Z,8.07
2022-09-01T10:42:55.902Z,12.73
2022-09-01T10:48:32.153Z,17.65
2022-09-01T10:53:42.269Z,20.75
2022-09-01T11:05:16.800Z,32.88
2022-09-01T11:10:52.415Z,42.70
2022-09-01T11:16:00.275Z,40.67
2022-09-01T11:21:19.127Z,38.08
2022-09-01T11:26:49.558Z,32.78
2022-09-01T11:31:53.975Z,29.73
2022-09-01T11:37:02.025Z,25.15
2022-09-01T11:42:14.718Z,19.27
2022-09-01T11:47:24.456Z,21.15
2022-09-01T11:52:35.908Z,17.60
2022-09-01T11:57:42.092Z,13.18
2022-09-01T12:02:49.769Z,14.38
2022-09-01T12:07:55.352Z,13.07
2022-09-01T12:13:07.715Z,10.38
2022-09-01T12:18:19.150Z,12.02
2022-09-01T12:23:29.621Z,9.85
2022-09-01T12:28:35.946Z,14.02
2022-09-01T12:33:40.232Z,10.98
2022-09-01T12:38:45.739Z,7.75
2022-09-01T12:43:53.361Z,7.57
2022-09-01T12:49:18.774Z,5.65
2022-09-01T12:54:27.788Z,6.65
2022-09-01T12:59:35.960Z,6.13
2022-09-01T13:04:41.674Z,4.93
2022-09-01T13:09:46.607Z,5.25
2022-09-01T13:14:50.779Z,5.65
2022-09-01T13:19:55.819Z,5.05
2022-09-01T13:25:00.793Z,3.88
2022-09-01T13:30:05.384Z,4.65
2022-09-01T13:35:10.842Z,3.42
2022-09-01T13:40:17.960Z,6.43
2022-09-01T13:51:14.565Z,4.22
2022-09-01T13:55:54.284Z,4.63
2022-09-01T14:01:00.225Z,3.45
2022-09-01T14:06:03.935Z,4.00
2022-09-01T14:11:09.706Z,5.13
2022-09-01T14:16:14.873Z,6.45
2022-09-01T14:21:18.948Z,4.03
2022-09-01T14:26:24.089Z,3.85
2022-09-01T14:31:32.056Z,5.45
2022-09-01T14:36:35.798Z,4.40
2022-09-01T14:41:40.794Z,5.25
2022-09-01T14:46:45.138Z,3.60
2022-09-01T14:57:36.978Z,3.33
2022-09-01T15:02:37.767Z,8.02
2022-09-01T15:07:43.415Z,5.20
2022-09-01T15:12:49.771Z,5.93
2022-09-01T15:17:54.155Z,5.67
2022-09-01T15:22:57.759Z,6.38
2022-09-01T15:28:03.125Z,4.07
2022-09-01T15:33:13.349Z,3.20
2022-09-01T15:38:19.238Z,3.58
2022-09-01T15:43:24.733Z,5.90
2022-09-01T15:48:30.080Z,4.70
2022-09-01T15:53:33.545Z,3.95
2022-09-01T15:58:59.444Z,6.05
2022-09-01T16:04:02.300Z,3.83
2022-09-01T16:09:07.237Z,4.03
2022-09-01T16:14:12.554Z,4.38
2022-09-01T16:19:34.653Z,18.05
2022-09-01T16:24:45.684Z,13.00
2022-09-01T16:29:57.784Z,12.02
2022-09-01T16:35:04.270Z,11.77
2022-09-01T16:40:30.116Z,7.17
2022-09-01T16:45:53.988Z,6.07
2022-09-01T16:51:11.142Z,8.85
2022-09-01T16:56:25.060Z,7.00
2022-09-01T17:01:45.388Z,12.02
2022-09-01T17:07:09.898Z,13.32
2022-09-01T17:12:29.303Z,10.48
2022-09-01T17:17:47.989Z,10.98
2022-09-01T17:23:00.694Z,5.85
2022-09-01T17:28:14.045Z,10.25
2022-09-01T17:33:30.097Z,5.88
2022-09-01T17:38:54.285Z,3.35
2022-09-01T17:44:16.764Z,5.40
2022-09-01T17:49:33.657Z,11.75
2022-09-01T18:00:01.662Z,6.45
2022-09-01T18:05:19.863Z,6.47
2022-09-01T18:10:35.869Z,7.15
2022-09-01T18:15:58.512Z,7.90
2022-09-01T18:21:12.142Z,7.15
2022-09-01T18:26:29.713Z,4.82
2022-09-01T18:32:08.698Z,3.15
2022-09-01T18:37:41.291Z,3.80
2022-09-01T18:43:02.161Z,6.40
2022-09-01T18:48:25.721Z,4.95
2022-09-01T18:53:47.267Z,5.60
2022-09-01T18:59:15.216Z,7.05
2022-09-01T19:04:28.863Z,7.10
2022-09-01T19:09:45.483Z,8.50
2022-09-01T19:15:01.966Z,8.70
2022-09-01T19:20:12.322Z,6.50
2022-09-01T19:25:40.686Z,6.20
2022-09-01T19:30:50.556Z,5.28
2022-09-01T19:35:58.995Z,4.88
2022-09-01T19:41:17.468Z,4.35
2022-09-01T19:46:38.340Z,6.07
2022-09-01T19:51:52.074Z,6.97
2022-09-01T19:57:05.292Z,5.40
2022-09-01T20:02:21.184Z,7.85
2022-09-01T20:07:34.524Z,6.43
2022-09-01T20:12:52.147Z,5.13
2022-09-01T20:23:11.790Z,5.95
2022-09-01T20:28:31.026Z,3.55
2022-09-01T20:33:47.941Z,6.05
2022-09-01T20:39:23.616Z,4.28
2022-09-01T20:44:39.585Z,5.90
2022-09-01T20:49:43.736Z,5.68
2022-09-01T20:55:01.193Z,3.90
2022-09-01T21:00:26.034Z,4.65
2022-09-01T21:05:51.285Z,3.50
2022-09-01T21:11:03.049Z,15.77
2022-09-01T21:16:17.869Z,12.05
2022-09-01T21:21:37.097Z,8.57
2022-09-01T21:26:41.298Z,7.13
2022-09-01T21:31:47.030Z,11.45
2022-09-01T21:36:50.548Z,6.93
2022-09-01T21:41:59.095Z,5.55
2022-09-01T21:47:04.468Z,8.02
2022-09-01T21:52:08.118Z,4.78
2022-09-01T21:57:11.617Z,5.85
2022-09-01T22:02:16.968Z,6.22
2022-09-01T22:07:21.161Z,4.68
2022-09-01T22:12:24.955Z,4.53
2022-09-01T22:17:31.541Z,4.50
2022-09-01T22:22:35.631Z,4.30
2022-09-01T22:27:39.486Z,3.22
2022-09-01T22:32:45.409Z,5.32
2022-09-01T22:37:49.912Z,3.45
2022-09-01T22:42:53.300Z,4.05
2022-09-01T22:47:58.283Z,5.22
2022-09-01T22:53:01.824Z,3.83
2022-09-01T22:58:05.561Z,8.90
2022-09-01T23:03:10.656Z,5.78
2022-09-01T23:08:15.920Z,3.47
2022-09-01T23:13:19.600Z,3.33
2022-09-01T23:18:25.669Z,7.38
2022-09-01T23:23:29.296Z,6.72
2022-09-01T23:28:33.584Z,5.72
2022-09-01T23:33:38.839Z,5.55
2022-09-01T23:38:43.449Z,8.10
2022-09-01T23:43:47.043Z,6.28
2022-09-01T23:48:52.109Z,4.28
2022-09-01T23:53:55.936Z,3.42
2022-09-01T23:59:01.247Z,5.82
